Time;durP1;ratioP1;P1;durP2;ratioP2;P2;SDS_P1;SDS_P2;PMS_P1;PMS_P2;Temp;Humidity;BMP_temperature;BMP_pressure;BME280_temperature;BME280_humidity;BME280_pressure;Samples;Min_cycle;Max_cycle;Signal;HPM_P1;HPM_P2
2023/08/23 00:01:27;;;;;;;13.43;8.15;;;;;;;14.94;76.68;99152.63;5077518;28;20397;-65
2023/08/23 00:03:52;;;;;;;14.65;8.48;;;;;;;14.91;76.49;99163.75;5078585;28;20109;-66
2023/08/23 00:06:18;;;;;;;14.68;8.77;;;;;;;14.92;76.73;99171.69;5077905;28;20085;-65
2023/08/23 00:08:43;;;;;;;12.50;8.60;;;;;;;14.96;76.89;99172.22;5095093;28;20089;-64
2023/08/23 00:11:09;;;;;;;20.40;8.88;;;;;;;14.91;77.28;99177.22;5095510;28;20072;-64
2023/08/23 00:13:35;;;;;;;23.13;9.30;;;;;;;14.83;77.11;99166.47;5095305;28;20112;-65
2023/08/23 00:16:00;;;;;;;17.85;9.13;;;;;;;14.87;77.17;99174.06;5095416;28;20407;-64
2023/08/23 00:18:26;;;;;;;17.55;8.90;;;;;;;14.84;77.29;99170.84;5095450;28;20032;-65
2023/08/23 00:20:51;;;;;;;15.27;8.85;;;;;;;14.83;77.48;99174.53;5076973;28;20032;-65
2023/08/23 00:23:17;;;;;;;12.60;8.82;;;;;;;14.78;77.43;99167.81;5094972;28;20314;-65
2023/08/23 00:25:42;;;;;;;20.55;9.50;;;;;;;14.74;77.89;99171.84;5094886;28;20111;-65
2023/08/23 00:28:08;;;;;;;19.48;9.38;;;;;;;14.78;77.76;99178.59;5094868;28;20043;-65
2023/08/23 00:30:33;;;;;;;14.20;8.75;;;;;;;14.76;77.64;99186.00;5094775;28;20110;-64
2023/08/23 00:32:59;;;;;;;15.50;8.82;;;;;;;14.75;77.62;99178.06;5095438;28;20112;-65
2023/08/23 00:35:24;;;;;;;12.50;8.05;;;;;;;14.74;77.63;99171.84;5095634;28;20024;-64
2023/08/23 00:37:50;;;;;;;15.63;8.75;;;;;;;14.74;77.61;99168.31;5094636;28;20032;-66
2023/08/23 00:40:15;;;;;;;13.13;9.20;;;;;;;14.74;77.72;99166.47;5094132;28;20028;-65
2023/08/23 00:42:40;;;;;;;12.18;9.00;;;;;;;14.73;77.64;99174.72;5095095;28;20032;-65
2023/08/23 00:45:07;;;;;;;14.23;8.85;;;;;;;14.52;77.59;99134.75;5095147;28;20059;-65
2023/08/23 00:47:33;;;;;;;13.90;9.02;;;;;;;14.70;77.72;99170.44;5094490;28;20063;-65
2023/08/23 00:49:59;;;;;;;11.30;8.27;;;;;;;14.65;77.45;99156.66;5094715;28;20064;-65
2023/08/23 00:52:26;;;;;;;16.73;8.77;;;;;;;14.71;77.62;99172.19;5094805;28;20122;-66
2023/08/23 00:54:53;;;;;;;13.75;9.32;;;;;;;14.71;77.98;99166.81;5094202;28;20050;-67
2023/08/23 00:57:20;;;;;;;13.40;8.90;;;;;;;14.45;78.13;99130.00;5073966;28;20048;-65
2023/08/23 00:59:46;;;;;;;12.48;8.80;;;;;;;14.69;78.10;99166.06;5072552;28;20033;-66
2023/08/23 01:02:12;;;;;;;12.50;9.05;;;;;;;14.68;78.36;99150.91;5072997;28;20095;-65
2023/08/23 01:04:37;;;;;;;15.07;9.00;;;;;;;14.66;78.01;99152.94;5078682;28;20450;-64
2023/08/23 01:07:03;;;;;;;13.05;8.50;;;;;;;14.67;77.98;99153.78;5094003;28;20040;-65
2023/08/23 01:09:48;;;;;;;13.48;8.43;;;;;;;14.73;77.82;99156.69;5094251;28;20032;-65
2023/08/23 01:12:19;;;;;;;13.25;8.68;;;;;;;14.69;77.87;99168.75;5094095;28;20040;-65
2023/08/23 01:14:49;;;;;;;15.10;9.30;;;;;;;14.67;78.17;99162.69;5093973;28;20051;-66
2023/08/23 01:17:18;;;;;;;13.35;8.45;;;;;;;14.62;78.02;99157.84;5094069;28;20028;-64
2023/08/23 01:19:44;;;;;;;12.80;8.40;;;;;;;14.58;77.81;99155.63;5093450;28;20022;-65
2023/08/23 01:22:16;;;;;;;15.43;9.18;;;;;;;14.37;77.78;99124.63;5093641;28;20040;-66
2023/08/23 01:24:41;;;;;;;11.52;8.68;;;;;;;14.52;78.10;99153.63;5076447;28;20024;-65
2023/08/23 01:27:07;;;;;;;12.20;8.50;;;;;;;14.47;78.22;99144.19;5077108;28;20047;-65
2023/08/23 01:29:32;;;;;;;13.27;8.48;;;;;;;14.52;78.44;99156.31;5093698;28;20366;-65
2023/08/23 01:32:14;;;;;;;14.25;9.07;;;;;;;14.55;78.54;99150.59;5093746;28;20063;-66
2023/08/23 01:34:46;;;;;;;12.50;8.38;;;;;;;14.29;78.52;99116.53;5076093;28;20078;-65
2023/08/23 01:37:13;;;;;;;11.48;8.43;;;;;;;14.48;78.53;99150.41;5093481;28;20059;-65
2023/08/23 01:39:39;;;;;;;15.85;9.35;;;;;;;14.37;78.79;99130.00;5093492;28;20123;-65
2023/08/23 01:42:06;;;;;;;13.35;8.82;;;;;;;14.48;78.68;99151.25;5094156;28;20081;-65
2023/08/23 01:44:31;;;;;;;14.55;8.90;;;;;;;14.44;78.49;99157.13;5093595;28;20107;-66
2023/08/23 01:46:57;;;;;;;14.73;8.48;;;;;;;14.46;78.43;99153.25;5076183;28;20122;-65
2023/08/23 01:49:22;;;;;;;13.95;8.63;;;;;;;14.39;78.60;99146.84;5093184;28;20113;-65
2023/08/23 01:51:48;;;;;;;16.98;8.65;;;;;;;14.41;78.78;99150.22;5076679;28;20032;-66
2023/08/23 01:54:13;;;;;;;12.18;9.07;;;;;;;14.37;79.01;99148.88;5059288;28;20032;-66
2023/08/23 01:56:38;;;;;;;13.57;8.55;;;;;;;14.40;79.20;99148.53;5093190;28;20477;-66
2023/08/23 01:59:04;;;;;;;15.93;8.85;;;;;;;14.38;79.24;99145.16;5093486;28;20024;-65
2023/08/23 02:01:31;;;;;;;15.75;8.63;;;;;;;14.39;79.27;99152.22;5089318;28;20028;-67
2023/08/23 02:03:57;;;;;;;13.80;9.13;;;;;;;14.38;79.25;99147.84;5093145;28;20020;-65
2023/08/23 02:06:22;;;;;;;12.43;9.10;;;;;;;14.37;79.00;99142.66;5093071;28;20032;-66
2023/08/23 02:08:48;;;;;;;15.77;8.88;;;;;;;14.40;79.34;99147.69;5093302;28;20024;-65
2023/08/23 02:11:13;;;;;;;14.20;8.40;;;;;;;14.38;79.16;99139.78;5092075;28;20136;-66
2023/08/23 02:13:39;;;;;;;16.73;9.05;;;;;;;14.41;79.56;99155.59;5091968;28;20447;-67
2023/08/23 02:16:05;;;;;;;15.13;8.98;;;;;;;14.38;79.34;99142.47;5092166;28;20043;-65
2023/08/23 02:18:31;;;;;;;13.32;9.07;;;;;;;14.45;79.13;99162.34;5092626;28;20025;-66
2023/08/23 02:20:57;;;;;;;15.23;9.45;;;;;;;14.23;78.96;99134.19;5093282;28;20339;-66
2023/08/23 02:23:24;;;;;;;18.70;9.98;;;;;;;14.44;79.32;99157.97;5091796;28;20032;-66
2023/08/23 02:25:50;;;;;;;12.57;9.45;;;;;;;14.49;79.28;99173.63;5091697;28;20431;-65
2023/08/23 02:28:16;;;;;;;14.68;9.02;;;;;;;14.48;79.51;99164.72;5093158;28;20130;-66
2023/08/23 02:30:41;;;;;;;14.43;9.25;;;;;;;14.57;79.46;99167.41;5093025;28;20042;-66
2023/08/23 02:33:07;;;;;;;15.02;9.27;;;;;;;14.50;79.60;99151.94;5092457;28;20024;-66
2023/08/23 02:35:32;;;;;;;16.45;10.35;;;;;;;14.66;79.13;99166.41;5092609;28;20070;-66
2023/08/23 02:37:59;;;;;;;16.42;11.05;;;;;;;14.72;79.12;99176.56;5091899;28;20476;-66
2023/08/23 02:40:25;;;;;;;15.93;11.13;;;;;;;14.59;79.00;99142.00;5092842;28;20135;-66
2023/08/23 02:42:55;;;;;;;16.88;10.77;;;;;;;14.83;78.98;99163.78;5092432;28;20111;-65
2023/08/23 02:45:20;;;;;;;14.75;11.07;;;;;;;14.96;78.67;99172.22;5092307;28;20020;-66
2023/08/23 02:47:46;;;;;;;17.85;10.45;;;;;;;15.07;78.27;99161.06;5091668;28;20034;-65
2023/08/23 02:50:11;;;;;;;15.52;10.15;;;;;;;15.18;77.55;99159.88;5092361;28;20067;-65
2023/08/23 02:52:37;;;;;;;13.95;10.18;;;;;;;15.31;77.38;99161.19;5090851;28;20020;-63
2023/08/23 02:55:03;;;;;;;15.95;10.43;;;;;;;15.35;76.91;99158.00;5089633;28;20085;-66
2023/08/23 02:57:29;;;;;;;17.52;10.43;;;;;;;15.44;76.60;99164.22;5074526;28;20034;-65
2023/08/23 02:59:54;;;;;;;13.57;9.55;;;;;;;15.52;76.24;99157.13;5091770;28;20036;-65
2023/08/23 03:02:20;;;;;;;14.55;8.57;;;;;;;15.58;76.23;99151.03;5092332;28;20081;-65
2023/08/23 03:04:45;;;;;;;13.07;9.15;;;;;;;15.71;75.75;99162.13;5074333;28;20082;-64
2023/08/23 03:07:11;;;;;;;11.18;9.30;;;;;;;15.78;75.39;99163.09;5092387;28;20040;-66
2023/08/23 03:09:36;;;;;;;16.42;8.70;;;;;;;15.91;75.07;99162.59;5092360;28;20028;-66
2023/08/23 03:12:02;;;;;;;9.98;8.98;;;;;;;16.05;74.44;99152.06;5074248;28;20048;-66
2023/08/23 03:14:29;;;;;;;13.07;8.48;;;;;;;16.13;74.09;99156.59;5075450;28;20327;-65
2023/08/23 03:16:55;;;;;;;12.23;8.55;;;;;;;16.25;73.41;99148.94;5091757;28;20024;-65
2023/08/23 03:19:20;;;;;;;11.82;8.55;;;;;;;16.38;73.29;99149.19;5091482;28;20039;-66
2023/08/23 03:21:46;;;;;;;9.93;8.73;;;;;;;16.36;72.76;99118.81;5092205;28;20533;-65
2023/08/23 03:24:11;;;;;;;10.77;7.65;;;;;;;16.76;71.78;99143.03;5095458;28;20032;-65
2023/08/23 03:26:37;;;;;;;13.98;8.05;;;;;;;17.06;71.06;99143.13;5078369;28;20335;-65
2023/08/23 03:29:02;;;;;;;11.25;8.15;;;;;;;17.37;69.92;99152.97;5078668;28;20085;-65
2023/08/23 03:31:28;;;;;;;11.93;7.32;;;;;;;17.73;68.51;99138.72;5095902;28;20287;-65
2023/08/23 03:33:53;;;;;;;9.10;7.40;;;;;;;18.12;67.49;99141.31;5095363;28;20071;-65
2023/08/23 03:36:19;;;;;;;12.57;7.50;;;;;;;18.38;66.36;99148.06;5096228;28;20094;-66
2023/08/23 03:38:44;;;;;;;12.35;6.75;;;;;;;18.62;65.35;99144.97;5078269;28;20131;-65
2023/08/23 03:41:13;;;;;;;11.05;7.05;;;;;;;18.76;64.53;99105.28;5078840;28;20039;-63
2023/08/23 03:43:40;;;;;;;10.02;6.18;;;;;;;19.22;63.58;99135.72;5077783;28;20039;-65
2023/08/23 03:46:05;;;;;;;11.27;6.45;;;;;;;19.35;62.97;99129.53;5095933;28;20024;-65
2023/08/23 03:48:31;;;;;;;7.07;5.93;;;;;;;19.41;62.28;99125.22;5095280;28;20028;-64
2023/08/23 03:50:59;;;;;;;8.88;6.35;;;;;;;19.56;62.01;99139.50;5095042;28;20044;-64
2023/08/23 03:53:26;;;;;;;7.00;5.15;;;;;;;19.60;61.99;99138.06;5095701;28;20020;-65
2023/08/23 03:55:54;;;;;;;8.95;5.65;;;;;;;19.72;61.99;99140.22;5095274;28;20110;-66
2023/08/23 03:58:20;;;;;;;7.72;5.60;;;;;;;19.84;61.03;99140.47;5095270;28;20113;-65
2023/08/23 04:00:52;;;;;;;7.53;5.47;;;;;;;20.04;60.87;99141.44;5094687;28;20065;-65
2023/08/23 04:03:18;;;;;;;9.18;5.28;;;;;;;20.26;59.95;99145.94;5095856;28;20326;-65
2023/08/23 04:05:44;;;;;;;6.85;5.20;;;;;;;20.41;59.16;99138.44;5095827;28;20032;-67
2023/08/23 04:08:10;;;;;;;10.48;5.47;;;;;;;20.49;58.68;99143.66;5095347;28;20434;-65
2023/08/23 04:10:39;;;;;;;7.40;5.07;;;;;;;20.39;58.86;99135.06;5077246;28;20052;-65
2023/08/23 04:13:04;;;;;;;7.57;5.63;;;;;;;20.20;59.68;99134.00;5095435;28;20043;-65
2023/08/23 04:15:30;;;;;;;7.88;6.03;;;;;;;20.01;60.16;99135.56;5095152;28;20028;-64
2023/08/23 04:17:55;;;;;;;9.70;5.85;;;;;;;19.85;60.19;99125.84;5095167;28;20047;-65
2023/08/23 04:20:21;;;;;;;7.47;5.20;;;;;;;19.76;60.69;99133.31;5093413;28;20293;-64
2023/08/23 04:22:47;;;;;;;7.43;5.07;;;;;;;19.66;61.29;99136.44;5095237;28;20516;-66
2023/08/23 04:25:12;;;;;;;9.85;5.50;;;;;;;19.57;61.72;99134.91;5094973;28;20032;-64
2023/08/23 04:27:38;;;;;;;7.25;5.32;;;;;;;19.68;61.71;99137.06;5095112;28;20417;-65
2023/08/23 04:30:06;;;;;;;7.55;5.70;;;;;;;20.25;60.27;99134.19;5094508;28;20032;-66
2023/08/23 04:32:32;;;;;;;11.75;5.80;;;;;;;21.80;55.78;99123.38;5094546;28;20032;-65
2023/08/23 04:34:58;;;;;;;8.73;5.60;;;;;;;23.99;49.70;99113.91;5094812;28;20046;-65
2023/08/23 04:37:24;;;;;;;7.65;5.07;;;;;;;26.08;44.47;99105.03;5094947;28;20101;-65
2023/08/23 04:39:49;;;;;;;10.27;5.30;;;;;;;27.95;40.33;99106.13;5093461;28;20522;-65
2023/08/23 04:42:15;;;;;;;8.43;4.63;;;;;;;29.29;37.25;99109.31;5093475;28;20035;-64
2023/08/23 04:44:40;;;;;;;6.28;4.18;;;;;;;30.07;35.54;99113.34;5094694;28;20055;-65
2023/08/23 04:47:06;;;;;;;6.05;3.70;;;;;;;31.40;33.05;99107.38;5093919;28;20150;-65
2023/08/23 04:49:32;;;;;;;7.22;3.60;;;;;;;31.45;32.66;99112.91;5093816;28;20074;-65
2023/08/23 04:51:58;;;;;;;7.50;3.70;;;;;;;30.76;33.37;99104.13;5093876;28;20040;-66
2023/08/23 04:54:24;;;;;;;6.63;3.65;;;;;;;30.05;34.32;99106.44;5076819;28;20444;-65
2023/08/23 04:56:49;;;;;;;4.82;3.40;;;;;;;29.60;35.76;99112.28;5092819;28;20035;-66
2023/08/23 04:59:15;;;;;;;5.90;3.65;;;;;;;29.76;34.83;99115.13;5079135;28;20084;-62
2023/08/23 05:01:41;;;;;;;9.00;3.83;;;;;;;30.39;34.30;99117.03;5094436;28;20127;-66
2023/08/23 05:04:07;;;;;;;4.78;3.80;;;;;;;31.02;32.67;99126.22;5093908;28;20031;-67
2023/08/23 05:06:34;;;;;;;4.18;3.22;;;;;;;31.20;32.50;99128.44;5075594;28;20029;-65
2023/08/23 05:09:00;;;;;;;9.52;3.22;;;;;;;31.25;32.20;99124.84;5093992;28;20098;-64
2023/08/23 05:11:26;;;;;;;8.98;3.47;;;;;;;31.43;31.99;99119.84;5094283;28;20454;-64
2023/08/23 05:13:51;;;;;;;3.50;3.20;;;;;;;32.33;30.26;99117.31;5075976;28;20116;-64
2023/08/23 05:16:17;;;;;;;4.22;3.22;;;;;;;31.91;30.22;99089.81;5094361;28;20113;-64
2023/08/23 05:18:43;;;;;;;6.97;3.42;;;;;;;31.18;31.50;99121.50;5093868;28;20032;-64
2023/08/23 05:21:09;;;;;;;5.97;3.33;;;;;;;30.30;33.42;99124.19;5093873;28;20038;-65
2023/08/23 05:23:34;;;;;;;7.18;3.30;;;;;;;29.26;34.87;99115.38;5094259;28;20056;-64
2023/08/23 05:26:00;;;;;;;5.05;3.78;;;;;;;28.39;36.38;99127.25;5093865;28;20117;-64
2023/08/23 05:28:26;;;;;;;7.40;3.40;;;;;;;27.64;37.75;99112.06;5093726;28;20031;-66
2023/08/23 05:30:51;;;;;;;8.65;3.78;;;;;;;27.14;39.07;99113.78;5094032;28;20335;-64
2023/08/23 05:33:17;;;;;;;4.32;3.60;;;;;;;27.07;39.44;99115.84;5094145;28;20165;-64
2023/08/23 05:35:43;;;;;;;5.22;4.28;;;;;;;27.21;38.62;99108.09;5093411;28;20038;-65
2023/08/23 05:38:09;;;;;;;7.22;4.10;;;;;;;27.63;37.83;99118.63;5093346;28;20039;-65
2023/08/23 05:40:39;;;;;;;9.95;4.40;;;;;;;28.06;36.85;99104.31;5093737;28;20203;-66
2023/08/23 05:43:05;;;;;;;8.48;4.03;;;;;;;28.22;36.32;99103.44;5088478;28;20106;-65
2023/08/23 05:45:31;;;;;;;7.30;2.97;;;;;;;28.20;35.45;99108.34;5092293;28;20032;-65
2023/08/23 05:47:58;;;;;;;4.97;3.05;;;;;;;28.28;35.23;99118.06;5092796;28;20368;-66
2023/08/23 05:50:24;;;;;;;8.30;3.40;;;;;;;28.34;34.72;99116.19;5092693;28;20089;-65
2023/08/23 05:52:49;;;;;;;6.85;3.22;;;;;;;28.24;34.69;99107.84;5092752;28;20103;-67
2023/08/23 05:55:15;;;;;;;4.82;3.60;;;;;;;28.18;34.88;99104.22;5093157;28;20032;-64
2023/08/23 05:57:40;;;;;;;7.28;4.88;;;;;;;28.15;35.16;99113.78;5092540;28;20407;-65
2023/08/23 06:00:09;;;;;;;6.60;4.88;;;;;;;28.20;35.15;99108.34;5093461;28;20031;-65
2023/08/23 06:02:35;;;;;;;7.68;4.60;;;;;;;28.59;34.69;99099.13;5090465;28;20028;-64
2023/08/23 06:05:03;;;;;;;8.23;4.13;;;;;;;28.96;34.47;99107.72;5090251;28;20040;-65
2023/08/23 06:07:29;;;;;;;7.03;3.20;;;;;;;28.73;34.98;99105.03;5092858;28;20032;-64
2023/08/23 06:09:55;;;;;;;7.25;3.30;;;;;;;28.11;36.78;99115.38;5093338;28;20413;-66
2023/08/23 06:12:24;;;;;;;8.65;3.20;;;;;;;27.29;38.34;99107.69;5092329;28;20373;-65
2023/08/23 06:14:49;;;;;;;8.43;3.22;;;;;;;26.52;40.17;99107.22;5091827;28;20455;-65
2023/08/23 06:17:16;;;;;;;9.45;3.17;;;;;;;25.90;41.44;99106.84;5093195;28;20120;-66
2023/08/23 06:19:42;;;;;;;8.05;2.92;;;;;;;25.12;43.90;99114.44;5092779;28;20365;-65
2023/08/23 06:22:08;;;;;;;8.68;3.72;;;;;;;24.46;45.32;99116.03;5092157;28;20772;-66
2023/08/23 06:24:33;;;;;;;8.00;3.85;;;;;;;23.99;46.91;99107.63;5074018;28;20522;-65
2023/08/23 06:26:59;;;;;;;5.18;3.20;;;;;;;23.63;48.11;99118.34;5091795;28;20123;-65
2023/08/23 06:29:25;;;;;;;5.40;3.70;;;;;;;23.20;49.68;99109.09;5092789;28;20047;-64
2023/08/23 06:31:50;;;;;;;4.88;3.78;;;;;;;22.64;51.66;99084.34;5091163;28;20408;-65
2023/08/23 06:34:15;;;;;;;7.03;3.78;;;;;;;22.47;52.39;99117.63;5085629;28;20035;-65
2023/08/23 06:36:41;;;;;;;4.97;3.75;;;;;;;22.17;53.72;99112.69;5091692;28;20115;-64
2023/08/23 06:39:06;;;;;;;4.93;4.10;;;;;;;21.89;54.17;99115.78;5092264;28;20032;-65
2023/08/23 06:41:32;;;;;;;4.20;3.80;;;;;;;21.64;55.42;99109.16;5090920;28;20031;-65
2023/08/23 06:43:59;;;;;;;5.05;3.88;;;;;;;21.53;56.15;99117.97;5091408;28;20036;-65
2023/08/23 06:46:25;;;;;;;6.10;3.95;;;;;;;21.48;56.59;99117.78;5091361;28;20111;-65
2023/08/23 06:48:50;;;;;;;4.63;3.80;;;;;;;21.45;56.52;99115.44;5089922;28;20130;-65
2023/08/23 06:51:16;;;;;;;4.75;3.85;;;;;;;21.55;55.74;99117.72;5091740;28;20028;-67
2023/08/23 06:53:41;;;;;;;7.45;3.42;;;;;;;21.68;54.93;99115.03;5082154;28;20032;-64
2023/08/23 06:56:08;;;;;;;5.20;3.30;;;;;;;21.85;54.31;99115.38;5086865;28;20092;-62
2023/08/23 06:58:33;;;;;;;7.47;3.97;;;;;;;22.15;53.22;99106.63;5089707;28;20042;-60
2023/08/23 07:01:01;;;;;;;4.57;3.58;;;;;;;22.71;52.34;99111.56;5088498;28;20058;-64
2023/08/23 07:03:26;;;;;;;6.43;3.10;;;;;;;23.20;49.91;99109.09;5087226;28;20016;-64
2023/08/23 07:05:52;;;;;;;5.88;3.30;;;;;;;23.85;48.08;99101.47;5091310;28;20169;-63
2023/08/23 07:08:18;;;;;;;4.80;2.92;;;;;;;24.33;47.05;99106.13;5090462;28;20362;-67
2023/08/23 07:10:43;;;;;;;3.40;2.85;;;;;;;24.56;46.32;99118.22;5038555;28;1513262;-63
2023/08/23 07:13:09;;;;;;;3.53;3.22;;;;;;;24.53;46.78;99107.75;5092351;28;20588;-63
2023/08/23 07:15:35;;;;;;;7.03;3.42;;;;;;;24.50;47.12;99105.47;5091428;28;20031;-62
2023/08/23 07:18:01;;;;;;;7.50;3.97;;;;;;;24.34;47.34;99117.91;5074097;28;20040;-62
2023/08/23 07:20:27;;;;;;;10.50;3.47;;;;;;;23.92;48.40;99078.47;5092186;28;20039;-62
2023/08/23 07:22:52;;;;;;;7.43;3.15;;;;;;;24.05;48.82;99113.03;5091185;28;20032;-62
2023/08/23 07:25:18;;;;;;;5.15;3.63;;;;;;;23.89;48.77;99110.88;5092017;28;20077;-62
2023/08/23 07:27:44;;;;;;;5.32;3.50;;;;;;;23.78;48.97;99116.06;5092050;28;20035;-68
2023/08/23 07:30:11;;;;;;;7.00;4.22;;;;;;;23.70;49.34;99108.16;5090372;28;20695;-65
2023/08/23 07:32:37;;;;;;;7.40;4.15;;;;;;;23.83;48.87;99112.63;5091915;28;20024;-65
2023/08/23 07:35:03;;;;;;;5.70;3.28;;;;;;;24.22;48.25;99118.69;5091775;28;20032;-65
2023/08/23 07:37:30;;;;;;;7.28;3.28;;;;;;;24.49;47.46;99121.06;5091491;28;20450;-66
2023/08/23 07:39:55;;;;;;;5.10;2.97;;;;;;;24.61;47.06;99120.25;5074426;28;20035;-61
2023/08/23 07:42:21;;;;;;;4.95;3.40;;;;;;;24.66;46.58;99114.91;5087801;28;20442;-66
2023/08/23 07:44:47;;;;;;;3.78;3.28;;;;;;;24.65;47.14;99119.53;5091751;28;20097;-65
2023/08/23 07:47:12;;;;;;;5.03;3.20;;;;;;;24.73;47.90;99125.78;5090919;28;20060;-63
2023/08/23 07:49:38;;;;;;;9.77;3.75;;;;;;;24.64;47.66;99130.75;5088154;28;20036;-64
2023/08/23 07:52:04;;;;;;;5.25;3.10;;;;;;;24.26;48.60;99123.69;5087293;28;20393;-62
2023/08/23 07:54:30;;;;;;;4.70;3.55;;;;;;;23.68;50.52;99125.84;5077363;28;20378;-64
2023/08/23 07:56:55;;;;;;;3.45;2.63;;;;;;;23.25;51.46;99124.78;5082329;28;20028;-64
2023/08/23 07:59:21;;;;;;;4.85;2.70;;;;;;;22.83;52.24;99130.81;5090865;28;20085;-63
2023/08/23 08:01:47;;;;;;;4.35;2.78;;;;;;;22.48;52.93;99129.34;5089719;28;20434;-67
2023/08/23 08:04:12;;;;;;;3.72;2.50;;;;;;;22.30;53.58;99128.16;5091751;28;20032;-64
2023/08/23 08:06:39;;;;;;;3.55;2.53;;;;;;;22.08;54.74;99125.78;5091182;28;20118;-70
2023/08/23 08:09:05;;;;;;;2.97;2.78;;;;;;;21.85;55.32;99126.28;5092037;28;20032;-72
2023/08/23 08:11:31;;;;;;;4.22;2.60;;;;;;;21.68;55.74;99133.22;5094847;28;20040;-68
2023/08/23 08:13:57;;;;;;;5.53;2.65;;;;;;;21.49;56.39;99124.88;5095197;28;20115;-68
2023/08/23 08:16:23;;;;;;;3.22;2.90;;;;;;;21.42;56.24;99126.78;5057644;28;20052;-67
2023/08/23 08:18:48;;;;;;;4.90;3.03;;;;;;;21.21;56.64;99113.19;5078118;28;20362;-69
2023/08/23 08:21:14;;;;;;;5.70;3.10;;;;;;;21.21;57.01;99125.97;5075599;28;20024;-65
2023/08/23 08:23:39;;;;;;;4.03;3.50;;;;;;;21.23;56.48;99123.88;5084510;28;20026;-65
2023/08/23 08:26:06;;;;;;;5.57;3.30;;;;;;;21.29;56.21;99128.47;5088696;28;20036;-71
2023/08/23 08:28:33;;;;;;;4.72;2.67;;;;;;;21.18;56.27;99101.88;5092829;28;20551;-70
2023/08/23 08:30:58;;;;;;;3.90;3.50;;;;;;;21.42;56.87;99119.44;5092403;28;20398;-72
2023/08/23 08:33:24;;;;;;;5.88;3.45;;;;;;;21.30;56.37;99091.19;5093036;28;20103;-70
2023/08/23 08:35:49;;;;;;;3.53;3.20;;;;;;;21.53;56.31;99123.41;5093505;28;20039;-67
2023/08/23 08:38:15;;;;;;;5.32;3.38;;;;;;;21.55;56.62;99120.47;5092439;28;20030;-68
2023/08/23 08:40:40;;;;;;;4.53;3.75;;;;;;;21.58;56.17;99115.44;5068867;28;20093;-65
2023/08/23 08:43:06;;;;;;;9.25;3.80;;;;;;;21.67;56.21;99120.66;5092982;28;20028;-70
2023/08/23 08:45:32;;;;;;;4.88;3.58;;;;;;;21.74;55.52;99126.94;5093888;28;20186;-67
2023/08/23 08:47:58;;;;;;;4.63;3.72;;;;;;;21.83;55.30;99117.47;5094391;28;20044;-73
2023/08/23 08:50:30;;;;;;;5.13;3.58;;;;;;;21.99;54.67;99126.22;5093696;28;20024;-73
2023/08/23 08:52:59;;;;;;;5.15;3.40;;;;;;;22.07;54.57;99123.25;5093632;28;20043;-67
2023/08/23 08:55:25;;;;;;;6.22;3.70;;;;;;;22.03;55.01;99120.13;5085674;28;20031;-73
2023/08/23 08:57:53;;;;;;;4.38;3.30;;;;;;;22.06;54.38;99127.03;5101526;28;20438;-65
2023/08/23 09:00:25;;;;;;;8.80;3.50;;;;;;;21.94;54.55;99121.41;5103236;28;20028;-70
2023/08/23 09:02:57;;;;;;;5.03;3.25;;;;;;;21.71;55.37;99120.03;5092942;28;20054;-72
2023/08/23 09:05:23;;;;;;;6.68;3.63;;;;;;;21.51;55.74;99120.06;5093634;28;20066;-67
2023/08/23 09:07:49;;;;;;;5.90;3.90;;;;;;;21.49;56.09;99116.72;5093746;28;20039;-69
2023/08/23 09:10:15;;;;;;;9.68;3.70;;;;;;;21.57;55.28;99115.63;5090314;28;20043;-66
2023/08/23 09:12:41;;;;;;;5.03;3.75;;;;;;;21.65;54.97;99118.19;5092862;28;20537;-64
2023/08/23 09:15:07;;;;;;;5.47;3.80;;;;;;;21.74;54.78;99113.34;5093836;28;20106;-66
2023/08/23 09:17:34;;;;;;;10.55;4.65;;;;;;;21.81;54.67;99125.03;5093224;28;20116;-65
2023/08/23 09:20:03;;;;;;;4.78;4.05;;;;;;;21.99;54.48;99120.78;5092195;28;20020;-65
2023/08/23 09:22:29;;;;;;;6.22;4.00;;;;;;;22.07;54.07;99118.66;5093832;28;20047;-65
2023/08/23 09:24:55;;;;;;;6.40;3.90;;;;;;;22.28;53.81;99108.44;5093176;28;20726;-65
2023/08/23 09:27:22;;;;;;;5.75;4.28;;;;;;;22.64;52.31;99114.34;5090508;28;20040;-63
2023/08/23 09:29:48;;;;;;;6.90;3.95;;;;;;;22.77;52.00;99081.53;5080191;28;20132;-63
2023/08/23 09:32:13;;;;;;;6.72;4.38;;;;;;;23.08;51.37;99112.53;5079480;28;20061;-63
2023/08/23 09:34:39;;;;;;;7.30;3.92;;;;;;;23.07;51.06;99116.31;5088540;28;20450;-64
2023/08/23 09:37:06;;;;;;;7.65;3.72;;;;;;;23.12;51.13;99112.94;5076906;28;20435;-64
2023/08/23 09:39:31;;;;;;;4.50;3.83;;;;;;;23.14;51.02;99109.97;5069633;28;20086;-64
2023/08/23 09:42:03;;;;;;;4.78;4.32;;;;;;;23.04;51.25;99114.03;5083433;28;20395;-65
2023/08/23 09:44:40;;;;;;;5.07;4.32;;;;;;;23.01;51.72;99095.38;5086364;28;20050;-64
2023/08/23 09:47:17;;;;;;;5.13;3.70;;;;;;;23.02;51.37;99102.50;5072847;28;20170;-64
2023/08/23 09:49:44;;;;;;;5.20;4.00;;;;;;;22.88;51.07;99079.97;5083867;28;20082;-64
2023/08/23 09:52:13;;;;;;;4.55;3.70;;;;;;;23.23;50.16;99101.25;5063093;28;20111;-64
2023/08/23 09:54:49;;;;;;;4.68;3.70;;;;;;;23.63;50.20;99107.41;5090642;28;20130;-64
2023/08/23 09:57:17;;;;;;;5.43;3.90;;;;;;;24.02;48.87;99104.44;5092550;28;20028;-63
2023/08/23 09:59:44;;;;;;;4.00;3.55;;;;;;;24.26;48.65;99099.94;5091931;28;20035;-65
2023/08/23 10:02:10;;;;;;;5.65;3.90;;;;;;;24.44;47.25;99107.25;5090875;28;20056;-66
2023/08/23 10:04:42;;;;;;;4.20;3.17;;;;;;;24.69;46.73;99105.38;5089857;28;20040;-65
2023/08/23 10:07:08;;;;;;;4.13;3.40;;;;;;;24.74;46.29;99092.69;5088477;28;20051;-66
2023/08/23 10:09:38;;;;;;;3.58;3.10;;;;;;;24.84;46.42;99094.88;5090161;28;20033;-66
2023/08/23 10:12:06;;;;;;;4.18;3.40;;;;;;;24.71;46.11;99100.50;5090741;28;20070;-65
2023/08/23 10:14:34;;;;;;;6.22;3.40;;;;;;;24.44;47.17;99096.31;5089194;28;20047;-65
2023/08/23 10:17:04;;;;;;;3.55;3.15;;;;;;;24.26;47.44;99102.66;5089720;28;20079;-65
2023/08/23 10:19:30;;;;;;;6.65;2.90;;;;;;;23.89;48.47;99097.22;5090481;28;20686;-65
2023/08/23 10:21:57;;;;;;;5.22;3.45;;;;;;;23.60;50.08;99105.94;5091635;28;20063;-65
2023/08/23 10:24:33;;;;;;;6.90;3.22;;;;;;;23.24;51.35;99115.75;5090069;28;20343;-66
2023/08/23 10:27:07;;;;;;;6.65;4.03;;;;;;;22.99;52.83;99113.88;5091349;28;20482;-67
2023/08/23 10:29:34;;;;;;;4.10;3.28;;;;;;;22.68;53.35;99112.88;5092186;28;20096;-65
2023/08/23 10:32:10;;;;;;;3.95;3.13;;;;;;;22.54;54.00;99116.75;5092036;28;20031;-65
2023/08/23 10:34:37;;;;;;;3.85;3.28;;;;;;;22.38;55.21;99107.97;5092149;28;20043;-65
2023/08/23 10:37:19;;;;;;;4.35;3.83;;;;;;;22.46;54.28;99121.41;5088440;28;20450;-66
2023/08/23 10:39:55;;;;;;;4.32;2.42;;;;;;;22.44;53.47;99119.91;5086135;28;20363;-65
2023/08/23 10:42:22;;;;;;;6.13;2.60;;;;;;;22.75;54.81;99115.53;5092253;28;20027;-65
2023/08/23 10:45:05;;;;;;;2.35;1.80;;;;;;;23.32;53.02;99117.41;5092016;28;20040;-66
2023/08/23 10:47:36;;;;;;;4.15;2.33;;;;;;;23.65;51.15;99086.16;5092422;28;20392;-66
2023/08/23 10:50:05;;;;;;;5.28;2.00;;;;;;;24.16;49.60;99107.84;5091701;28;20055;-67
2023/08/23 10:52:31;;;;;;;3.30;2.05;;;;;;;24.43;47.11;99102.84;5091541;28;20028;-65
2023/08/23 10:54:57;;;;;;;3.45;2.40;;;;;;;24.74;47.03;99106.34;5091846;28;20343;-65
2023/08/23 10:57:23;;;;;;;2.33;2.13;;;;;;;24.78;46.64;99085.69;5091803;28;20042;-66
2023/08/23 10:59:48;;;;;;;2.92;2.17;;;;;;;24.98;45.58;99095.47;5092141;28;20035;-65
2023/08/23 11:02:15;;;;;;;3.53;1.98;;;;;;;25.05;45.52;99107.13;5091993;28;20354;-65
2023/08/23 11:04:41;;;;;;;3.03;2.08;;;;;;;25.03;44.95;99097.50;5091664;28;20028;-65
2023/08/23 11:07:07;;;;;;;3.08;2.38;;;;;;;24.70;45.36;99110.63;5091385;28;20038;-61
2023/08/23 11:09:33;;;;;;;2.78;2.53;;;;;;;24.03;46.86;99081.50;5090996;28;20404;-58
2023/08/23 11:11:59;;;;;;;4.00;3.03;;;;;;;23.72;48.69;99110.66;5091374;28;20055;-58
2023/08/23 11:14:25;;;;;;;4.57;2.67;;;;;;;23.33;50.46;99084.38;5091355;28;20036;-57
2023/08/23 11:16:50;;;;;;;3.95;2.40;;;;;;;23.49;50.13;99112.19;5091518;28;20036;-55
2023/08/23 11:19:16;;;;;;;3.08;2.22;;;;;;;23.44;51.04;99120.22;5092155;28;20039;-54
2023/08/23 11:21:42;;;;;;;3.92;2.45;;;;;;;23.17;51.50;99112.25;5091383;28;20035;-57
2023/08/23 11:24:07;;;;;;;2.95;2.17;;;;;;;22.81;52.54;99106.47;5084851;28;20036;-60
2023/08/23 11:26:33;;;;;;;5.07;4.25;;;;;;;22.53;52.79;99121.34;5072131;28;20354;-61